sensor_id;sensor_type;location;lat;lon;timestamp;P1;durP1;ratioP1;P2;durP2;ratioP2
13197;SDS011;6664;52.514;13.440;2022-12-11T00:02:37;10.20;;;6.07;;
13197;SDS011;6664;52.514;13.440;2022-12-11T00:05:23;7.73;;;5.43;;
13197;SDS011;6664;52.514;13.440;2022-12-11T00:08:11;8.97;;;6.03;;
13197;SDS011;6664;52.514;13.440;2022-12-11T00:10:57;7.50;;;5.50;;
13197;SDS011;6664;52.514;13.440;2022-12-11T00:13:42;7.90;;;5.77;;
13197;SDS011;6664;52.514;13.440;2022-12-11T00:16:30;10.10;;;5.50;;
13197;SDS011;6664;52.514;13.440;2022-12-11T00:19:18;8.00;;;5.87;;
13197;SDS011;6664;52.514;13.440;2022-12-11T00:22:05;7.63;;;5.40;;
13197;SDS011;6664;52.514;13.440;2022-12-11T00:24:56;11.37;;;5.77;;
13197;SDS011;6664;52.514;13.440;2022-12-11T00:27:41;7.30;;;5.80;;
13197;SDS011;6664;52.514;13.440;2022-12-11T00:30:29;7.60;;;5.17;;
13197;SDS011;6664;52.514;13.440;2022-12-11T00:33:14;10.87;;;5.77;;
13197;SDS011;6664;52.514;13.440;2022-12-11T00:36:02;9.43;;;7.07;;
13197;SDS011;6664;52.514;13.440;2022-12-11T00:38:55;8.80;;;5.63;;
13197;SDS011;6664;52.514;13.440;2022-12-11T00:41:43;7.03;;;5.40;;
13197;SDS011;6664;52.514;13.440;2022-12-11T00:44:29;9.40;;;5.57;;
13197;SDS011;6664;52.514;13.440;2022-12-11T00:47:19;8.23;;;5.20;;
13197;SDS011;6664;52.514;13.440;2022-12-11T00:50:05;11.20;;;6.37;;
13197;SDS011;6664;52.514;13.440;2022-12-11T00:52:54;11.00;;;5.40;;
13197;SDS011;6664;52.514;13.440;2022-12-11T00:55:43;8.80;;;5.37;;
13197;SDS011;6664;52.514;13.440;2022-12-11T00:58:31;6.13;;;5.50;;
13197;SDS011;6664;52.514;13.440;2022-12-11T01:01:20;8.93;;;5.17;;
13197;SDS011;6664;52.514;13.440;2022-12-11T01:04:12;10.37;;;5.70;;
13197;SDS011;6664;52.514;13.440;2022-12-11T01:07:00;9.63;;;6.43;;
13197;SDS011;6664;52.514;13.440;2022-12-11T01:09:46;8.20;;;4.60;;
13197;SDS011;6664;52.514;13.440;2022-12-11T01:15:41;6.90;;;5.40;;
13197;SDS011;6664;52.514;13.440;2022-12-11T01:18:28;8.80;;;6.17;;
13197;SDS011;6664;52.514;13.440;2022-12-11T01:21:16;10.10;;;5.47;;
13197;SDS011;6664;52.514;13.440;2022-12-11T01:24:03;9.80;;;5.03;;
13197;SDS011;6664;52.514;13.440;2022-12-11T01:26:50;10.93;;;5.20;;
13197;SDS011;6664;52.514;13.440;2022-12-11T01:29:36;9.80;;;5.87;;
13197;SDS011;6664;52.514;13.440;2022-12-11T01:32:26;10.30;;;6.47;;
13197;SDS011;6664;52.514;13.440;2022-12-11T01:35:15;10.17;;;6.67;;
13197;SDS011;6664;52.514;13.440;2022-12-11T01:38:01;11.23;;;5.90;;
13197;SDS011;6664;52.514;13.440;2022-12-11T01:40:47;12.10;;;6.90;;
13197;SDS011;6664;52.514;13.440;2022-12-11T01:43:33;10.67;;;6.17;;
13197;SDS011;6664;52.514;13.440;2022-12-11T01:46:19;8.77;;;6.07;;
13197;SDS011;6664;52.514;13.440;2022-12-11T01:49:06;8.33;;;5.53;;
13197;SDS011;6664;52.514;13.440;2022-12-11T01:51:55;8.00;;;5.53;;
13197;SDS011;6664;52.514;13.440;2022-12-11T01:54:48;9.57;;;5.93;;
13197;SDS011;6664;52.514;13.440;2022-12-11T01:57:36;8.60;;;5.50;;
13197;SDS011;6664;52.514;13.440;2022-12-11T02:00:24;8.90;;;6.43;;
13197;SDS011;6664;52.514;13.440;2022-12-11T02:03:10;8.30;;;6.60;;
13197;SDS011;6664;52.514;13.440;2022-12-11T02:05:58;9.50;;;5.83;;
13197;SDS011;6664;52.514;13.440;2022-12-11T02:08:44;9.33;;;5.57;;
13197;SDS011;6664;52.514;13.440;2022-12-11T02:11:33;8.43;;;5.10;;
13197;SDS011;6664;52.514;13.440;2022-12-11T02:17:25;11.83;;;6.50;;
13197;SDS011;6664;52.514;13.440;2022-12-11T02:32:54;8.40;;;5.83;;
13197;SDS011;6664;52.514;13.440;2022-12-11T02:35:44;11.60;;;5.87;;
13197;SDS011;6664;52.514;13.440;2022-12-11T02:38:31;7.93;;;5.90;;
13197;SDS011;6664;52.514;13.440;2022-12-11T02:41:21;9.03;;;6.57;;
13197;SDS011;6664;52.514;13.440;2022-12-11T02:44:09;11.97;;;7.13;;
13197;SDS011;6664;52.514;13.440;2022-12-11T02:47:02;12.83;;;7.27;;
13197;SDS011;6664;52.514;13.440;2022-12-11T02:49:50;12.93;;;6.60;;
13197;SDS011;6664;52.514;13.440;2022-12-11T02:52:40;7.47;;;5.20;;
13197;SDS011;6664;52.514;13.440;2022-12-11T02:55:27;12.90;;;6.90;;
13197;SDS011;6664;52.514;13.440;2022-12-11T02:58:23;12.30;;;5.97;;
13197;SDS011;6664;52.514;13.440;2022-12-11T03:01:16;8.73;;;5.40;;
13197;SDS011;6664;52.514;13.440;2022-12-11T03:04:01;10.33;;;6.23;;
13197;SDS011;6664;52.514;13.440;2022-12-11T03:06:48;14.10;;;7.07;;
13197;SDS011;6664;52.514;13.440;2022-12-11T03:09:38;13.17;;;6.97;;
13197;SDS011;6664;52.514;13.440;2022-12-11T03:12:32;10.93;;;6.10;;
13197;SDS011;6664;52.514;13.440;2022-12-11T03:15:21;10.00;;;6.20;;
13197;SDS011;6664;52.514;13.440;2022-12-11T03:18:33;7.80;;;5.40;;
13197;SDS011;6664;52.514;13.440;2022-12-11T03:21:27;10.73;;;6.20;;
13197;SDS011;6664;52.514;13.440;2022-12-11T03:24:59;6.43;;;5.37;;
13197;SDS011;6664;52.514;13.440;2022-12-11T03:28:08;13.07;;;5.93;;
13197;SDS011;6664;52.514;13.440;2022-12-11T03:31:00;9.10;;;6.50;;
13197;SDS011;6664;52.514;13.440;2022-12-11T03:33:52;9.20;;;7.20;;
13197;SDS011;6664;52.514;13.440;2022-12-11T03:36:39;11.27;;;6.77;;
13197;SDS011;6664;52.514;13.440;2022-12-11T03:39:31;10.13;;;6.10;;
13197;SDS011;6664;52.514;13.440;2022-12-11T03:42:20;10.10;;;6.47;;
13197;SDS011;6664;52.514;13.440;2022-12-11T03:45:08;8.60;;;5.63;;
13197;SDS011;6664;52.514;13.440;2022-12-11T03:47:58;9.87;;;6.30;;
13197;SDS011;6664;52.514;13.440;2022-12-11T03:50:48;7.90;;;5.70;;
13197;SDS011;6664;52.514;13.440;2022-12-11T03:53:35;10.57;;;6.47;;
13197;SDS011;6664;52.514;13.440;2022-12-11T03:56:22;9.60;;;5.87;;
13197;SDS011;6664;52.514;13.440;2022-12-11T03:59:10;8.77;;;5.60;;
13197;SDS011;6664;52.514;13.440;2022-12-11T04:01:58;9.17;;;6.67;;
13197;SDS011;6664;52.514;13.440;2022-12-11T04:04:43;15.97;;;5.83;;
13197;SDS011;6664;52.514;13.440;2022-12-11T04:07:29;9.13;;;6.27;;
13197;SDS011;6664;52.514;13.440;2022-12-11T04:10:17;11.30;;;6.43;;
13197;SDS011;6664;52.514;13.440;2022-12-11T04:13:02;7.43;;;5.43;;
13197;SDS011;6664;52.514;13.440;2022-12-11T04:15:48;7.97;;;5.57;;
13197;SDS011;6664;52.514;13.440;2022-12-11T04:18:33;13.00;;;5.80;;
13197;SDS011;6664;52.514;13.440;2022-12-11T04:21:40;7.10;;;5.50;;
13197;SDS011;6664;52.514;13.440;2022-12-11T04:24:45;8.53;;;5.67;;
13197;SDS011;6664;52.514;13.440;2022-12-11T04:27:32;9.13;;;5.83;;
13197;SDS011;6664;52.514;13.440;2022-12-11T04:30:33;7.90;;;5.73;;
13197;SDS011;6664;52.514;13.440;2022-12-11T04:33:18;11.33;;;6.17;;
13197;SDS011;6664;52.514;13.440;2022-12-11T04:36:04;10.17;;;6.57;;
13197;SDS011;6664;52.514;13.440;2022-12-11T04:38:50;17.07;;;7.83;;
13197;SDS011;6664;52.514;13.440;2022-12-11T04:41:37;9.03;;;5.87;;
13197;SDS011;6664;52.514;13.440;2022-12-11T04:44:22;8.43;;;5.83;;
13197;SDS011;6664;52.514;13.440;2022-12-11T04:47:10;11.87;;;6.70;;
13197;SDS011;6664;52.514;13.440;2022-12-11T04:49:58;12.03;;;7.07;;
13197;SDS011;6664;52.514;13.440;2022-12-11T04:52:46;11.20;;;6.87;;
13197;SDS011;6664;52.514;13.440;2022-12-11T04:55:31;7.90;;;6.07;;
13197;SDS011;6664;52.514;13.440;2022-12-11T04:58:17;13.63;;;7.33;;
13197;SDS011;6664;52.514;13.440;2022-12-11T05:01:06;13.60;;;7.50;;
13197;SDS011;6664;52.514;13.440;2022-12-11T05:03:58;10.83;;;6.10;;
13197;SDS011;6664;52.514;13.440;2022-12-11T05:06:44;9.83;;;6.53;;
13197;SDS011;6664;52.514;13.440;2022-12-11T05:09:32;18.33;;;7.20;;
13197;SDS011;6664;52.514;13.440;2022-12-11T05:12:17;10.10;;;6.50;;
13197;SDS011;6664;52.514;13.440;2022-12-11T05:15:03;11.17;;;6.83;;
13197;SDS011;6664;52.514;13.440;2022-12-11T05:17:48;9.77;;;7.10;;
13197;SDS011;6664;52.514;13.440;2022-12-11T05:20:37;9.93;;;6.10;;
13197;SDS011;6664;52.514;13.440;2022-12-11T05:23:22;12.83;;;6.93;;
13197;SDS011;6664;52.514;13.440;2022-12-11T05:26:12;13.10;;;7.13;;
13197;SDS011;6664;52.514;13.440;2022-12-11T05:29:01;9.70;;;6.70;;
13197;SDS011;6664;52.514;13.440;2022-12-11T05:31:49;10.27;;;6.67;;
13197;SDS011;6664;52.514;13.440;2022-12-11T05:34:36;9.30;;;6.67;;
13197;SDS011;6664;52.514;13.440;2022-12-11T05:37:21;11.97;;;6.87;;
13197;SDS011;6664;52.514;13.440;2022-12-11T05:40:07;12.17;;;6.20;;
13197;SDS011;6664;52.514;13.440;2022-12-11T05:42:54;17.33;;;6.37;;
13197;SDS011;6664;52.514;13.440;2022-12-11T05:45:39;12.77;;;6.50;;
13197;SDS011;6664;52.514;13.440;2022-12-11T05:48:25;11.20;;;6.77;;
13197;SDS011;6664;52.514;13.440;2022-12-11T05:51:10;8.10;;;6.07;;
13197;SDS011;6664;52.514;13.440;2022-12-11T05:53:57;16.10;;;7.07;;
13197;SDS011;6664;52.514;13.440;2022-12-11T05:56:45;12.40;;;7.77;;
13197;SDS011;6664;52.514;13.440;2022-12-11T05:59:33;9.80;;;6.77;;
13197;SDS011;6664;52.514;13.440;2022-12-11T06:02:18;15.97;;;6.50;;
13197;SDS011;6664;52.514;13.440;2022-12-11T06:05:04;9.90;;;6.80;;
13197;SDS011;6664;52.514;13.440;2022-12-11T06:07:50;8.53;;;5.57;;
13197;SDS011;6664;52.514;13.440;2022-12-11T06:10:35;12.80;;;7.37;;
13197;SDS011;6664;52.514;13.440;2022-12-11T06:13:21;11.83;;;6.43;;
13197;SDS011;6664;52.514;13.440;2022-12-11T06:16:07;7.80;;;5.37;;
13197;SDS011;6664;52.514;13.440;2022-12-11T06:18:54;11.10;;;6.50;;
13197;SDS011;6664;52.514;13.440;2022-12-11T06:21:42;12.07;;;5.90;;
13197;SDS011;6664;52.514;13.440;2022-12-11T06:24:29;11.93;;;6.00;;
13197;SDS011;6664;52.514;13.440;2022-12-11T06:27:17;13.27;;;5.60;;
13197;SDS011;6664;52.514;13.440;2022-12-11T06:30:05;11.07;;;5.83;;
13197;SDS011;6664;52.514;13.440;2022-12-11T06:32:50;8.50;;;5.10;;
13197;SDS011;6664;52.514;13.440;2022-12-11T06:35:36;9.67;;;6.40;;
13197;SDS011;6664;52.514;13.440;2022-12-11T06:38:25;7.20;;;6.03;;
13197;SDS011;6664;52.514;13.440;2022-12-11T06:41:13;11.20;;;6.20;;
13197;SDS011;6664;52.514;13.440;2022-12-11T06:43:59;9.43;;;6.23;;
13197;SDS011;6664;52.514;13.440;2022-12-11T06:46:47;9.37;;;5.60;;
13197;SDS011;6664;52.514;13.440;2022-12-11T06:49:34;7.60;;;5.73;;
13197;SDS011;6664;52.514;13.440;2022-12-11T06:52:20;6.97;;;5.20;;
13197;SDS011;6664;52.514;13.440;2022-12-11T06:55:07;8.23;;;5.70;;
13197;SDS011;6664;52.514;13.440;2022-12-11T06:57:57;8.67;;;5.50;;
13197;SDS011;6664;52.514;13.440;2022-12-11T07:00:43;8.57;;;5.40;;
13197;SDS011;6664;52.514;13.440;2022-12-11T07:03:28;7.30;;;5.17;;
13197;SDS011;6664;52.514;13.440;2022-12-11T07:06:17;10.00;;;6.00;;
13197;SDS011;6664;52.514;13.440;2022-12-11T07:09:04;11.33;;;6.00;;
13197;SDS011;6664;52.514;13.440;2022-12-11T07:11:52;5.63;;;4.70;;
13197;SDS011;6664;52.514;13.440;2022-12-11T07:14:37;10.43;;;6.00;;
13197;SDS011;6664;52.514;13.440;2022-12-11T07:17:25;5.43;;;4.60;;
13197;SDS011;6664;52.514;13.440;2022-12-11T07:20:11;8.40;;;5.10;;
13197;SDS011;6664;52.514;13.440;2022-12-11T07:22:57;9.77;;;6.10;;
13197;SDS011;6664;52.514;13.440;2022-12-11T07:25:45;9.13;;;5.43;;
13197;SDS011;6664;52.514;13.440;2022-12-11T07:28:30;7.80;;;4.70;;
13197;SDS011;6664;52.514;13.440;2022-12-11T07:31:21;9.03;;;5.03;;
13197;SDS011;6664;52.514;13.440;2022-12-11T07:34:10;5.67;;;4.70;;
13197;SDS011;6664;52.514;13.440;2022-12-11T07:36:57;18.60;;;5.53;;
13197;SDS011;6664;52.514;13.440;2022-12-11T07:39:43;5.17;;;4.40;;
13197;SDS011;6664;52.514;13.440;2022-12-11T07:42:32;9.87;;;4.97;;
13197;SDS011;6664;52.514;13.440;2022-12-11T07:45:18;6.17;;;4.60;;
13197;SDS011;6664;52.514;13.440;2022-12-11T07:48:04;6.20;;;4.53;;
13197;SDS011;6664;52.514;13.440;2022-12-11T07:50:50;5.90;;;4.43;;
13197;SDS011;6664;52.514;13.440;2022-12-11T07:53:35;6.70;;;4.10;;
13197;SDS011;6664;52.514;13.440;2022-12-11T07:56:21;6.20;;;4.30;;
13197;SDS011;6664;52.514;13.440;2022-12-11T07:59:06;5.83;;;3.90;;
13197;SDS011;6664;52.514;13.440;2022-12-11T08:01:52;8.87;;;5.17;;
13197;SDS011;6664;52.514;13.440;2022-12-11T08:04:38;7.30;;;3.77;;
13197;SDS011;6664;52.514;13.440;2022-12-11T08:07:25;5.90;;;4.87;;
13197;SDS011;6664;52.514;13.440;2022-12-11T08:10:10;12.70;;;4.33;;
13197;SDS011;6664;52.514;13.440;2022-12-11T08:12:56;7.03;;;4.93;;
13197;SDS011;6664;52.514;13.440;2022-12-11T08:15:42;7.83;;;5.03;;
13197;SDS011;6664;52.514;13.440;2022-12-11T08:18:31;6.37;;;4.00;;
13197;SDS011;6664;52.514;13.440;2022-12-11T08:21:21;7.37;;;3.70;;
13197;SDS011;6664;52.514;13.440;2022-12-11T08:24:08;8.20;;;5.03;;
13197;SDS011;6664;52.514;13.440;2022-12-11T08:26:54;8.07;;;4.73;;
13197;SDS011;6664;52.514;13.440;2022-12-11T08:29:41;5.67;;;4.77;;
13197;SDS011;6664;52.514;13.440;2022-12-11T08:32:29;6.87;;;4.27;;
13197;SDS011;6664;52.514;13.440;2022-12-11T08:35:15;7.13;;;4.67;;
13197;SDS011;6664;52.514;13.440;2022-12-11T08:38:04;5.63;;;4.77;;
13197;SDS011;6664;52.514;13.440;2022-12-11T08:40:50;8.97;;;4.97;;
13197;SDS011;6664;52.514;13.440;2022-12-11T08:43:35;7.70;;;4.93;;
13197;SDS011;6664;52.514;13.440;2022-12-11T08:46:25;7.00;;;5.40;;
13197;SDS011;6664;52.514;13.440;2022-12-11T08:49:18;5.93;;;4.40;;
13197;SDS011;6664;52.514;13.440;2022-12-11T08:52:04;5.37;;;4.27;;
13197;SDS011;6664;52.514;13.440;2022-12-11T08:54:52;8.20;;;4.60;;
13197;SDS011;6664;52.514;13.440;2022-12-11T08:57:38;6.80;;;4.63;;
13197;SDS011;6664;52.514;13.440;2022-12-11T09:00:27;8.63;;;4.57;;
13197;SDS011;6664;52.514;13.440;2022-12-11T09:03:13;8.33;;;4.87;;
13197;SDS011;6664;52.514;13.440;2022-12-11T09:05:58;6.63;;;4.30;;
13197;SDS011;6664;52.514;13.440;2022-12-11T09:08:48;5.30;;;4.10;;
13197;SDS011;6664;52.514;13.440;2022-12-11T09:11:37;6.27;;;4.70;;
13197;SDS011;6664;52.514;13.440;2022-12-11T09:14:22;5.87;;;3.57;;
13197;SDS011;6664;52.514;13.440;2022-12-11T09:17:08;6.73;;;4.43;;
13197;SDS011;6664;52.514;13.440;2022-12-11T09:19:53;6.57;;;5.40;;
13197;SDS011;6664;52.514;13.440;2022-12-11T09:22:39;5.37;;;4.30;;
13197;SDS011;6664;52.514;13.440;2022-12-11T09:25:28;6.27;;;5.13;;
13197;SDS011;6664;52.514;13.440;2022-12-11T09:28:14;7.60;;;4.97;;
13197;SDS011;6664;52.514;13.440;2022-12-11T09:31:00;5.97;;;4.23;;
13197;SDS011;6664;52.514;13.440;2022-12-11T09:33:56;5.77;;;3.40;;
13197;SDS011;6664;52.514;13.440;2022-12-11T09:36:45;4.87;;;3.20;;
13197;SDS011;6664;52.514;13.440;2022-12-11T09:39:31;5.20;;;3.77;;
13197;SDS011;6664;52.514;13.440;2022-12-11T09:42:19;8.20;;;5.10;;
13197;SDS011;6664;52.514;13.440;2022-12-11T09:45:16;8.43;;;4.50;;
13197;SDS011;6664;52.514;13.440;2022-12-11T09:48:02;6.20;;;4.60;;
13197;SDS011;6664;52.514;13.440;2022-12-11T09:50:55;6.20;;;4.97;;
13197;SDS011;6664;52.514;13.440;2022-12-11T09:53:42;6.90;;;4.67;;
13197;SDS011;6664;52.514;13.440;2022-12-11T09:56:35;10.73;;;4.63;;
13197;SDS011;6664;52.514;13.440;2022-12-11T10:05:48;5.17;;;4.13;;
13197;SDS011;6664;52.514;13.440;2022-12-11T10:18:02;7.53;;;4.93;;
13197;SDS011;6664;52.514;13.440;2022-12-11T10:20:51;7.73;;;4.83;;
13197;SDS011;6664;52.514;13.440;2022-12-11T10:23:42;4.70;;;4.20;;
13197;SDS011;6664;52.514;13.440;2022-12-11T10:26:36;11.00;;;4.87;;
13197;SDS011;6664;52.514;13.440;2022-12-11T10:29:24;6.93;;;4.83;;
13197;SDS011;6664;52.514;13.440;2022-12-11T10:32:13;9.10;;;4.90;;
13197;SDS011;6664;52.514;13.440;2022-12-11T10:38:33;7.07;;;4.77;;
13197;SDS011;6664;52.514;13.440;2022-12-11T10:41:35;8.50;;;4.60;;
13197;SDS011;6664;52.514;13.440;2022-12-11T10:44:24;10.40;;;5.17;;
13197;SDS011;6664;52.514;13.440;2022-12-11T10:47:14;7.50;;;5.60;;
13197;SDS011;6664;52.514;13.440;2022-12-11T10:50:02;8.00;;;4.17;;
13197;SDS011;6664;52.514;13.440;2022-12-11T10:52:50;7.90;;;5.17;;
13197;SDS011;6664;52.514;13.440;2022-12-11T10:55:43;6.83;;;4.63;;
13197;SDS011;6664;52.514;13.440;2022-12-11T10:58:32;7.27;;;4.30;;
13197;SDS011;6664;52.514;13.440;2022-12-11T11:01:22;7.93;;;4.37;;
13197;SDS011;6664;52.514;13.440;2022-12-11T11:04:13;7.57;;;4.90;;
13197;SDS011;6664;52.514;13.440;2022-12-11T11:07:14;6.63;;;4.87;;
13197;SDS011;6664;52.514;13.440;2022-12-11T11:12:59;6.37;;;4.50;;
13197;SDS011;6664;52.514;13.440;2022-12-11T11:15:46;12.30;;;6.00;;
13197;SDS011;6664;52.514;13.440;2022-12-11T11:18:33;6.80;;;4.23;;
13197;SDS011;6664;52.514;13.440;2022-12-11T11:21:22;7.50;;;5.13;;
13197;SDS011;6664;52.514;13.440;2022-12-11T11:24:17;12.60;;;4.57;;
13197;SDS011;6664;52.514;13.440;2022-12-11T11:30:30;6.47;;;4.87;;
13197;SDS011;6664;52.514;13.440;2022-12-11T11:33:22;8.80;;;4.70;;
13197;SDS011;6664;52.514;13.440;2022-12-11T11:36:18;8.27;;;5.00;;
13197;SDS011;6664;52.514;13.440;2022-12-11T11:42:17;7.13;;;4.37;;
13197;SDS011;6664;52.514;13.440;2022-12-11T11:48:29;9.50;;;5.10;;
13197;SDS011;6664;52.514;13.440;2022-12-11T11:54:33;9.20;;;5.17;;
13197;SDS011;6664;52.514;13.440;2022-12-11T12:00:24;7.37;;;5.00;;
13197;SDS011;6664;52.514;13.440;2022-12-11T12:03:18;6.33;;;4.90;;
13197;SDS011;6664;52.514;13.440;2022-12-11T12:21:24;7.43;;;5.00;;
13197;SDS011;6664;52.514;13.440;2022-12-11T12:24:24;9.13;;;5.67;;
13197;SDS011;6664;52.514;13.440;2022-12-11T12:28:25;8.30;;;5.07;;
13197;SDS011;6664;52.514;13.440;2022-12-11T12:31:10;11.43;;;5.00;;
13197;SDS011;6664;52.514;13.440;2022-12-11T12:42:44;8.23;;;5.07;;
13197;SDS011;6664;52.514;13.440;2022-12-11T12:45:58;6.03;;;4.40;;
13197;SDS011;6664;52.514;13.440;2022-12-11T12:49:50;12.57;;;5.10;;
13197;SDS011;6664;52.514;13.440;2022-12-11T12:55:26;11.67;;;5.37;;
13197;SDS011;6664;52.514;13.440;2022-12-11T12:58:26;6.90;;;5.00;;
13197;SDS011;6664;52.514;13.440;2022-12-11T13:04:06;11.90;;;4.73;;
13197;SDS011;6664;52.514;13.440;2022-12-11T13:07:16;7.53;;;5.53;;
13197;SDS011;6664;52.514;13.440;2022-12-11T13:10:24;5.80;;;4.60;;
13197;SDS011;6664;52.514;13.440;2022-12-11T13:13:28;7.50;;;4.73;;
13197;SDS011;6664;52.514;13.440;2022-12-11T13:16:34;8.93;;;5.57;;
13197;SDS011;6664;52.514;13.440;2022-12-11T13:24:58;7.63;;;5.20;;
13197;SDS011;6664;52.514;13.440;2022-12-11T13:27:46;6.23;;;4.83;;
13197;SDS011;6664;52.514;13.440;2022-12-11T13:30:34;11.50;;;5.80;;
13197;SDS011;6664;52.514;13.440;2022-12-11T13:33:20;10.77;;;6.13;;
13197;SDS011;6664;52.514;13.440;2022-12-11T13:42:02;8.23;;;5.17;;
13197;SDS011;6664;52.514;13.440;2022-12-11T13:44:50;7.20;;;4.57;;
13197;SDS011;6664;52.514;13.440;2022-12-11T13:47:35;7.27;;;4.70;;
13197;SDS011;6664;52.514;13.440;2022-12-11T13:50:25;5.63;;;4.50;;
13197;SDS011;6664;52.514;13.440;2022-12-11T13:53:17;8.40;;;5.47;;
13197;SDS011;6664;52.514;13.440;2022-12-11T13:56:04;10.43;;;5.73;;
13197;SDS011;6664;52.514;13.440;2022-12-11T13:58:53;7.50;;;5.50;;
13197;SDS011;6664;52.514;13.440;2022-12-11T14:01:39;6.80;;;5.00;;
13197;SDS011;6664;52.514;13.440;2022-12-11T14:04:25;6.20;;;4.93;;
13197;SDS011;6664;52.514;13.440;2022-12-11T14:07:14;10.40;;;6.47;;
13197;SDS011;6664;52.514;13.440;2022-12-11T14:13:02;7.20;;;4.40;;
13197;SDS011;6664;52.514;13.440;2022-12-11T14:15:51;10.07;;;5.67;;
13197;SDS011;6664;52.514;13.440;2022-12-11T14:18:38;7.57;;;5.03;;
13197;SDS011;6664;52.514;13.440;2022-12-11T14:21:24;10.40;;;6.00;;
13197;SDS011;6664;52.514;13.440;2022-12-11T14:24:10;6.33;;;5.17;;
13197;SDS011;6664;52.514;13.440;2022-12-11T14:26:58;7.10;;;4.63;;
13197;SDS011;6664;52.514;13.440;2022-12-11T14:29:44;8.80;;;5.07;;
13197;SDS011;6664;52.514;13.440;2022-12-11T14:32:34;8.37;;;5.70;;
13197;SDS011;6664;52.514;13.440;2022-12-11T14:35:33;7.90;;;5.07;;
13197;SDS011;6664;52.514;13.440;2022-12-11T14:38:45;8.40;;;5.40;;
13197;SDS011;6664;52.514;13.440;2022-12-11T14:44:27;6.37;;;4.87;;
13197;SDS011;6664;52.514;13.440;2022-12-11T14:47:17;7.53;;;5.50;;
13197;SDS011;6664;52.514;13.440;2022-12-11T14:53:03;9.17;;;5.40;;
13197;SDS011;6664;52.514;13.440;2022-12-11T14:55:54;8.47;;;5.93;;
13197;SDS011;6664;52.514;13.440;2022-12-11T14:58:59;9.50;;;5.67;;
13197;SDS011;6664;52.514;13.440;2022-12-11T15:02:34;9.13;;;5.50;;
13197;SDS011;6664;52.514;13.440;2022-12-11T15:05:23;7.90;;;5.80;;
13197;SDS011;6664;52.514;13.440;2022-12-11T15:13:53;8.60;;;5.47;;
13197;SDS011;6664;52.514;13.440;2022-12-11T15:16:44;9.87;;;5.93;;
13197;SDS011;6664;52.514;13.440;2022-12-11T15:19:33;8.57;;;5.87;;
13197;SDS011;6664;52.514;13.440;2022-12-11T15:22:20;13.83;;;5.80;;
13197;SDS011;6664;52.514;13.440;2022-12-11T15:25:16;8.03;;;5.60;;
13197;SDS011;6664;52.514;13.440;2022-12-11T15:28:21;7.17;;;5.00;;
13197;SDS011;6664;52.514;13.440;2022-12-11T15:31:27;8.83;;;5.67;;
13197;SDS011;6664;52.514;13.440;2022-12-11T15:34:20;9.07;;;5.93;;
13197;SDS011;6664;52.514;13.440;2022-12-11T15:37:26;7.80;;;5.37;;
13197;SDS011;6664;52.514;13.440;2022-12-11T15:40:13;7.30;;;5.20;;
13197;SDS011;6664;52.514;13.440;2022-12-11T15:43:01;8.43;;;5.20;;
13197;SDS011;6664;52.514;13.440;2022-12-11T15:45:47;8.60;;;5.30;;
13197;SDS011;6664;52.514;13.440;2022-12-11T15:48:33;6.97;;;5.57;;
13197;SDS011;6664;52.514;13.440;2022-12-11T15:51:19;11.77;;;5.80;;
13197;SDS011;6664;52.514;13.440;2022-12-11T15:54:04;7.20;;;5.20;;
13197;SDS011;6664;52.514;13.440;2022-12-11T15:56:50;6.03;;;4.93;;
13197;SDS011;6664;52.514;13.440;2022-12-11T15:59:39;9.40;;;5.50;;
13197;SDS011;6664;52.514;13.440;2022-12-11T16:02:28;7.40;;;5.50;;
13197;SDS011;6664;52.514;13.440;2022-12-11T16:05:13;9.83;;;5.73;;
13197;SDS011;6664;52.514;13.440;2022-12-11T16:08:02;9.40;;;5.30;;
13197;SDS011;6664;52.514;13.440;2022-12-11T16:10:50;6.87;;;5.13;;
13197;SDS011;6664;52.514;13.440;2022-12-11T16:13:37;6.27;;;5.10;;
13197;SDS011;6664;52.514;13.440;2022-12-11T16:16:23;8.33;;;5.63;;
13197;SDS011;6664;52.514;13.440;2022-12-11T16:19:09;9.23;;;5.30;;
13197;SDS011;6664;52.514;13.440;2022-12-11T16:21:55;7.90;;;5.03;;
13197;SDS011;6664;52.514;13.440;2022-12-11T16:24:41;6.80;;;4.43;;
13197;SDS011;6664;52.514;13.440;2022-12-11T16:27:27;14.40;;;6.70;;
13197;SDS011;6664;52.514;13.440;2022-12-11T16:30:13;8.33;;;6.00;;
13197;SDS011;6664;52.514;13.440;2022-12-11T16:32:58;11.73;;;6.70;;
13197;SDS011;6664;52.514;13.440;2022-12-11T16:35:44;11.90;;;6.10;;
13197;SDS011;6664;52.514;13.440;2022-12-11T16:38:33;9.70;;;6.10;;
13197;SDS011;6664;52.514;13.440;2022-12-11T16:41:20;11.80;;;5.70;;
13197;SDS011;6664;52.514;13.440;2022-12-11T16:44:07;8.53;;;5.97;;
13197;SDS011;6664;52.514;13.440;2022-12-11T16:46:53;10.93;;;5.77;;
13197;SDS011;6664;52.514;13.440;2022-12-11T16:49:39;7.30;;;5.83;;
13197;SDS011;6664;52.514;13.440;2022-12-11T16:52:26;8.90;;;5.67;;
13197;SDS011;6664;52.514;13.440;2022-12-11T16:55:12;9.13;;;5.17;;
13197;SDS011;6664;52.514;13.440;2022-12-11T16:57:59;6.80;;;5.03;;
13197;SDS011;6664;52.514;13.440;2022-12-11T17:00:46;8.00;;;5.93;;
13197;SDS011;6664;52.514;13.440;2022-12-11T17:03:32;9.83;;;5.30;;
13197;SDS011;6664;52.514;13.440;2022-12-11T17:06:17;7.87;;;4.90;;
13197;SDS011;6664;52.514;13.440;2022-12-11T17:09:04;8.03;;;6.33;;
13197;SDS011;6664;52.514;13.440;2022-12-11T17:11:50;10.23;;;5.60;;
13197;SDS011;6664;52.514;13.440;2022-12-11T17:14:38;17.00;;;6.73;;
13197;SDS011;6664;52.514;13.440;2022-12-11T17:17:23;8.97;;;6.80;;
13197;SDS011;6664;52.514;13.440;2022-12-11T17:20:09;10.10;;;5.63;;
13197;SDS011;6664;52.514;13.440;2022-12-11T17:22:55;9.10;;;5.73;;
13197;SDS011;6664;52.514;13.440;2022-12-11T17:25:42;9.23;;;6.00;;
13197;SDS011;6664;52.514;13.440;2022-12-11T17:28:31;10.50;;;6.20;;
13197;SDS011;6664;52.514;13.440;2022-12-11T17:31:19;12.13;;;6.10;;
13197;SDS011;6664;52.514;13.440;2022-12-11T17:34:05;10.57;;;6.80;;
13197;SDS011;6664;52.514;13.440;2022-12-11T17:36:51;10.87;;;6.43;;
13197;SDS011;6664;52.514;13.440;2022-12-11T17:39:39;9.03;;;5.67;;
13197;SDS011;6664;52.514;13.440;2022-12-11T17:42:25;10.03;;;5.80;;
13197;SDS011;6664;52.514;13.440;2022-12-11T17:45:10;10.27;;;6.23;;
13197;SDS011;6664;52.514;13.440;2022-12-11T17:47:57;7.60;;;5.60;;
13197;SDS011;6664;52.514;13.440;2022-12-11T17:50:43;10.80;;;6.97;;
13197;SDS011;6664;52.514;13.440;2022-12-11T17:53:31;10.33;;;6.63;;
13197;SDS011;6664;52.514;13.440;2022-12-11T17:56:17;10.23;;;6.63;;
13197;SDS011;6664;52.514;13.440;2022-12-11T17:59:05;13.73;;;5.90;;
13197;SDS011;6664;52.514;13.440;2022-12-11T18:01:53;10.33;;;6.97;;
13197;SDS011;6664;52.514;13.440;2022-12-11T18:04:39;9.77;;;6.30;;
13197;SDS011;6664;52.514;13.440;2022-12-11T18:07:27;11.77;;;7.47;;
13197;SDS011;6664;52.514;13.440;2022-12-11T18:10:12;12.30;;;6.80;;
13197;SDS011;6664;52.514;13.440;2022-12-11T18:12:58;11.50;;;7.20;;
13197;SDS011;6664;52.514;13.440;2022-12-11T18:15:44;11.47;;;5.97;;
13197;SDS011;6664;52.514;13.440;2022-12-11T18:18:30;9.33;;;5.77;;
13197;SDS011;6664;52.514;13.440;2022-12-11T18:21:20;12.67;;;6.33;;
13197;SDS011;6664;52.514;13.440;2022-12-11T18:24:10;11.77;;;5.40;;
13197;SDS011;6664;52.514;13.440;2022-12-11T18:26:55;8.10;;;5.97;;
13197;SDS011;6664;52.514;13.440;2022-12-11T18:29:46;10.40;;;6.43;;
13197;SDS011;6664;52.514;13.440;2022-12-11T18:32:34;14.40;;;6.90;;
13197;SDS011;6664;52.514;13.440;2022-12-11T18:35:20;8.33;;;5.23;;
13197;SDS011;6664;52.514;13.440;2022-12-11T18:38:05;10.63;;;6.00;;
13197;SDS011;6664;52.514;13.440;2022-12-11T18:40:53;8.13;;;5.83;;
13197;SDS011;6664;52.514;13.440;2022-12-11T18:43:41;12.07;;;5.77;;
13197;SDS011;6664;52.514;13.440;2022-12-11T18:46:27;10.67;;;6.40;;
13197;SDS011;6664;52.514;13.440;2022-12-11T18:49:13;8.40;;;6.00;;